sensor_id;sensor_type;location;lat;lon;timestamp;pressure;altitude;pressure_sealevel;temperature
65180;BMP280;51849;47.476;8.084;2022-09-01T00:01:19;96646.56;;;16.31
65180;BMP280;51849;47.476;8.084;2022-09-01T00:03:49;96634.56;;;16.17
65180;BMP280;51849;47.476;8.084;2022-09-01T00:06:18;96632.34;;;16.21
65180;BMP280;51849;47.476;8.084;2022-09-01T00:08:56;96638.94;;;16.15
65180;BMP280;51849;47.476;8.084;2022-09-01T00:11:26;96637.78;;;16.10
65180;BMP280;51849;47.476;8.084;2022-09-01T00:13:54;96636.19;;;16.07
65180;BMP280;51849;47.476;8.084;2022-09-01T00:16:27;96633.34;;;16.05
65180;BMP280;51849;47.476;8.084;2022-09-01T00:18:53;96632.13;;;16.06
65180;BMP280;51849;47.476;8.084;2022-09-01T00:21:28;96636.91;;;16.08
65180;BMP280;51849;47.476;8.084;2022-09-01T00:24:01;96627.44;;;15.99
65180;BMP280;51849;47.476;8.084;2022-09-01T00:26:28;96632.91;;;16.01
65180;BMP280;51849;47.476;8.084;2022-09-01T00:28:54;96624.13;;;15.99
65180;BMP280;51849;47.476;8.084;2022-09-01T00:31:20;96635.13;;;15.97
65180;BMP280;51849;47.476;8.084;2022-09-01T00:33:47;96623.00;;;15.94
65180;BMP280;51849;47.476;8.084;2022-09-01T00:36:14;96622.94;;;15.81
65180;BMP280;51849;47.476;8.084;2022-09-01T00:38:43;96623.06;;;15.70
65180;BMP280;51849;47.476;8.084;2022-09-01T00:41:10;96621.72;;;15.64
65180;BMP280;51849;47.476;8.084;2022-09-01T00:43:37;96625.56;;;15.63
65180;BMP280;51849;47.476;8.084;2022-09-01T00:46:07;96628.72;;;15.61
65180;BMP280;51849;47.476;8.084;2022-09-01T00:48:36;96622.16;;;15.68
65180;BMP280;51849;47.476;8.084;2022-09-01T00:51:08;96626.03;;;15.67
65180;BMP280;51849;47.476;8.084;2022-09-01T00:53:39;96629.16;;;15.65
65180;BMP280;51849;47.476;8.084;2022-09-01T00:56:06;96631.13;;;15.59
65180;BMP280;51849;47.476;8.084;2022-09-01T00:58:33;96620.13;;;15.61
65180;BMP280;51849;47.476;8.084;2022-09-01T01:01:00;96626.88;;;15.56
65180;BMP280;51849;47.476;8.084;2022-09-01T01:03:27;96623.00;;;15.57
65180;BMP280;51849;47.476;8.084;2022-09-01T01:05:57;96625.38;;;15.61
65180;BMP280;51849;47.476;8.084;2022-09-01T01:08:32;96625.63;;;15.57
65180;BMP280;51849;47.476;8.084;2022-09-01T01:11:13;96624.03;;;15.54
65180;BMP280;51849;47.476;8.084;2022-09-01T01:13:51;96622.41;;;15.51
65180;BMP280;51849;47.476;8.084;2022-09-01T01:16:24;96630.56;;;15.48
65180;BMP280;51849;47.476;8.084;2022-09-01T01:18:53;96624.41;;;15.45
65180;BMP280;51849;47.476;8.084;2022-09-01T01:21:34;96627.28;;;15.42
65180;BMP280;51849;47.476;8.084;2022-09-01T01:26:48;96626.31;;;15.45
65180;BMP280;51849;47.476;8.084;2022-09-01T01:29:14;96619.69;;;15.38
65180;BMP280;51849;47.476;8.084;2022-09-01T01:31:43;96619.75;;;15.33
65180;BMP280;51849;47.476;8.084;2022-09-01T01:34:10;96626.41;;;15.39
65180;BMP280;51849;47.476;8.084;2022-09-01T01:36:39;96624.72;;;15.36
65180;BMP280;51849;47.476;8.084;2022-09-01T01:39:09;96625.69;;;15.39
65180;BMP280;51849;47.476;8.084;2022-09-01T01:41:36;96624.41;;;15.45
65180;BMP280;51849;47.476;8.084;2022-09-01T01:44:07;96620.28;;;15.50
65180;BMP280;51849;47.476;8.084;2022-09-01T01:46:35;96626.66;;;15.54
65180;BMP280;51849;47.476;8.084;2022-09-01T01:49:02;96627.56;;;15.57
65180;BMP280;51849;47.476;8.084;2022-09-01T01:51:28;96631.28;;;15.67
65180;BMP280;51849;47.476;8.084;2022-09-01T01:53:58;96632.41;;;15.71
65180;BMP280;51849;47.476;8.084;2022-09-01T01:56:33;96630.75;;;15.68
65180;BMP280;51849;47.476;8.084;2022-09-01T01:59:02;96629.56;;;15.69
65180;BMP280;51849;47.476;8.084;2022-09-01T02:01:28;96638.38;;;15.72
65180;BMP280;51849;47.476;8.084;2022-09-01T02:03:58;96642.50;;;15.67
65180;BMP280;51849;47.476;8.084;2022-09-01T02:06:26;96634.81;;;15.69
65180;BMP280;51849;47.476;8.084;2022-09-01T02:08:53;96638.22;;;15.64
65180;BMP280;51849;47.476;8.084;2022-09-01T02:11:25;96635.81;;;15.66
65180;BMP280;51849;47.476;8.084;2022-09-01T02:13:55;96634.00;;;15.61
65180;BMP280;51849;47.476;8.084;2022-09-01T02:16:27;96637.31;;;15.62
65180;BMP280;51849;47.476;8.084;2022-09-01T02:18:53;96641.16;;;15.61
65180;BMP280;51849;47.476;8.084;2022-09-01T02:21:23;96638.22;;;15.27
65180;BMP280;51849;47.476;8.084;2022-09-01T02:23:52;96635.81;;;15.29
65180;BMP280;51849;47.476;8.084;2022-09-01T02:26:36;96631.00;;;15.33
65180;BMP280;51849;47.476;8.084;2022-09-01T02:29:07;96635.50;;;15.14
65180;BMP280;51849;47.476;8.084;2022-09-01T02:31:35;96633.34;;;15.18
65180;BMP280;51849;47.476;8.084;2022-09-01T02:34:05;96637.50;;;15.08
65180;BMP280;51849;47.476;8.084;2022-09-01T02:36:36;96634.88;;;15.08
65180;BMP280;51849;47.476;8.084;2022-09-01T02:39:16;96632.25;;;15.08
65180;BMP280;51849;47.476;8.084;2022-09-01T02:41:43;96630.31;;;14.90
65180;BMP280;51849;47.476;8.084;2022-09-01T02:44:09;96623.75;;;14.96
65180;BMP280;51849;47.476;8.084;2022-09-01T02:46:47;96624.22;;;14.76
65180;BMP280;51849;47.476;8.084;2022-09-01T02:49:22;96625.91;;;14.74
65180;BMP280;51849;47.476;8.084;2022-09-01T02:51:54;96632.13;;;14.71
65180;BMP280;51849;47.476;8.084;2022-09-01T02:54:22;96632.88;;;14.71
65180;BMP280;51849;47.476;8.084;2022-09-01T02:56:49;96632.59;;;14.75
65180;BMP280;51849;47.476;8.084;2022-09-01T02:59:20;96628.47;;;14.79
65180;BMP280;51849;47.476;8.084;2022-09-01T03:01:48;96632.59;;;14.75
65180;BMP280;51849;47.476;8.084;2022-09-01T03:04:15;96626.44;;;14.72
65180;BMP280;51849;47.476;8.084;2022-09-01T03:06:42;96630.84;;;14.59
65180;BMP280;51849;47.476;8.084;2022-09-01T03:09:12;96628.22;;;14.59
65180;BMP280;51849;47.476;8.084;2022-09-01T03:11:43;96626.31;;;14.59
65180;BMP280;51849;47.476;8.084;2022-09-01T03:14:17;96623.44;;;14.57
65180;BMP280;51849;47.476;8.084;2022-09-01T03:16:43;96622.47;;;14.60
65180;BMP280;51849;47.476;8.084;2022-09-01T03:19:11;96621.75;;;14.60
65180;BMP280;51849;47.476;8.084;2022-09-01T03:21:40;96625.75;;;14.66
65180;BMP280;51849;47.476;8.084;2022-09-01T03:24:08;96623.31;;;14.68
65180;BMP280;51849;47.476;8.084;2022-09-01T03:26:36;96623.13;;;14.66
65180;BMP280;51849;47.476;8.084;2022-09-01T03:29:02;96623.31;;;14.68
65180;BMP280;51849;47.476;8.084;2022-09-01T03:31:31;96622.63;;;14.68
65180;BMP280;51849;47.476;8.084;2022-09-01T03:34:01;96616.38;;;14.71
65180;BMP280;51849;47.476;8.084;2022-09-01T03:36:28;96626.00;;;14.63
65180;BMP280;51849;47.476;8.084;2022-09-01T03:38:55;96617.66;;;14.64
65180;BMP280;51849;47.476;8.084;2022-09-01T03:41:24;96617.94;;;14.61
65180;BMP280;51849;47.476;8.084;2022-09-01T03:43:51;96617.94;;;14.61
65180;BMP280;51849;47.476;8.084;2022-09-01T03:46:21;96612.13;;;14.68
65180;BMP280;51849;47.476;8.084;2022-09-01T03:48:51;96628.63;;;14.63
65180;BMP280;51849;47.476;8.084;2022-09-01T03:51:22;96617.53;;;14.75
65180;BMP280;51849;47.476;8.084;2022-09-01T03:53:50;96619.56;;;14.88
65180;BMP280;51849;47.476;8.084;2022-09-01T03:56:18;96617.88;;;14.90
65180;BMP280;51849;47.476;8.084;2022-09-01T03:58:44;96621.19;;;14.91
65180;BMP280;51849;47.476;8.084;2022-09-01T04:01:11;96616.88;;;14.93
65180;BMP280;51849;47.476;8.084;2022-09-01T04:03:39;96613.75;;;14.95
65180;BMP280;51849;47.476;8.084;2022-09-01T04:06:08;96622.31;;;15.01
65180;BMP280;51849;47.476;8.084;2022-09-01T04:08:35;96628.81;;;15.13
65180;BMP280;51849;47.476;8.084;2022-09-01T04:11:12;96627.44;;;15.12
65180;BMP280;51849;47.476;8.084;2022-09-01T04:13:43;96629.53;;;15.14
65180;BMP280;51849;47.476;8.084;2022-09-01T04:16:35;96627.13;;;15.16
65180;BMP280;51849;47.476;8.084;2022-09-01T04:19:24;96628.50;;;15.22
65180;BMP280;51849;47.476;8.084;2022-09-01T04:22:10;96630.66;;;15.24
65180;BMP280;51849;47.476;8.084;2022-09-01T04:24:40;96631.31;;;15.24
65180;BMP280;51849;47.476;8.084;2022-09-01T04:27:11;96627.72;;;15.27
65180;BMP280;51849;47.476;8.084;2022-09-01T04:29:39;96628.88;;;15.50
65180;BMP280;51849;47.476;8.084;2022-09-01T04:32:08;96642.66;;;15.56
65180;BMP280;51849;47.476;8.084;2022-09-01T04:34:37;96637.75;;;15.47
65180;BMP280;51849;47.476;8.084;2022-09-01T04:37:09;96630.47;;;15.53
65180;BMP280;51849;47.476;8.084;2022-09-01T04:39:37;96624.75;;;15.55
65180;BMP280;51849;47.476;8.084;2022-09-01T04:42:03;96622.81;;;15.55
65180;BMP280;51849;47.476;8.084;2022-09-01T04:44:31;96630.28;;;15.51
65180;BMP280;51849;47.476;8.084;2022-09-01T04:46:59;96621.81;;;15.58
65180;BMP280;51849;47.476;8.084;2022-09-01T04:49:25;96622.25;;;15.62
65180;BMP280;51849;47.476;8.084;2022-09-01T04:51:52;96617.59;;;15.68
65180;BMP280;51849;47.476;8.084;2022-09-01T04:54:21;96621.47;;;15.67
65180;BMP280;51849;47.476;8.084;2022-09-01T04:56:50;96627.34;;;15.73
65180;BMP280;51849;47.476;8.084;2022-09-01T04:59:20;96617.44;;;15.79
65180;BMP280;51849;47.476;8.084;2022-09-01T05:01:46;96617.44;;;15.79
65180;BMP280;51849;47.476;8.084;2022-09-01T05:04:21;96620.31;;;15.81
65180;BMP280;51849;47.476;8.084;2022-09-01T05:06:51;96619.59;;;15.81
65180;BMP280;51849;47.476;8.084;2022-09-01T05:09:24;96617.91;;;15.83
65180;BMP280;51849;47.476;8.084;2022-09-01T05:11:55;96623.16;;;15.83
65180;BMP280;51849;47.476;8.084;2022-09-01T05:14:22;96616.94;;;15.99
65180;BMP280;51849;47.476;8.084;2022-09-01T05:16:56;96617.66;;;16.13
65180;BMP280;51849;47.476;8.084;2022-09-01T05:19:22;96621.22;;;16.15
65180;BMP280;51849;47.476;8.084;2022-09-01T05:21:53;96620.84;;;16.24
65180;BMP280;51849;47.476;8.084;2022-09-01T05:24:22;96626.22;;;16.19
65180;BMP280;51849;47.476;8.084;2022-09-01T05:26:54;96630.50;;;16.03
65180;BMP280;51849;47.476;8.084;2022-09-01T05:29:22;96629.28;;;16.04
65180;BMP280;51849;47.476;8.084;2022-09-01T05:31:50;96625.94;;;16.04
65180;BMP280;51849;47.476;8.084;2022-09-01T05:34:17;96624.44;;;16.08
65180;BMP280;51849;47.476;8.084;2022-09-01T05:36:56;96623.03;;;16.07
65180;BMP280;51849;47.476;8.084;2022-09-01T05:39:22;96630.81;;;16.13
65180;BMP280;51849;47.476;8.084;2022-09-01T05:41:52;96628.34;;;16.02
65180;BMP280;51849;47.476;8.084;2022-09-01T05:44:21;96623.03;;;16.07
65180;BMP280;51849;47.476;8.084;2022-09-01T05:46:49;96629.69;;;16.08
65180;BMP280;51849;47.476;8.084;2022-09-01T05:49:17;96637.03;;;16.15
65180;BMP280;51849;47.476;8.084;2022-09-01T05:51:49;96632.66;;;16.18
65180;BMP280;51849;47.476;8.084;2022-09-01T05:54:21;96636.81;;;16.13
65180;BMP280;51849;47.476;8.084;2022-09-01T05:56:48;96632.66;;;16.18
65180;BMP280;51849;47.476;8.084;2022-09-01T05:59:14;96634.56;;;16.17
65180;BMP280;51849;47.476;8.084;2022-09-01T06:01:41;96628.75;;;16.24
65180;BMP280;51849;47.476;8.084;2022-09-01T06:04:08;96630.19;;;16.25
65180;BMP280;51849;47.476;8.084;2022-09-01T06:06:44;96626.72;;;16.30
65180;BMP280;51849;47.476;8.084;2022-09-01T06:09:12;96633.28;;;16.24
65180;BMP280;51849;47.476;8.084;2022-09-01T06:11:39;96624.19;;;16.25
65180;BMP280;51849;47.476;8.084;2022-09-01T06:14:06;96636.38;;;16.41
65180;BMP280;51849;47.476;8.084;2022-09-01T06:16:33;96635.34;;;16.44
65180;BMP280;51849;47.476;8.084;2022-09-01T06:19:01;96639.69;;;16.41
65180;BMP280;51849;47.476;8.084;2022-09-01T06:21:28;96637.69;;;16.47
65180;BMP280;51849;47.476;8.084;2022-09-01T06:23:56;96638.47;;;16.42
65180;BMP280;51849;47.476;8.084;2022-09-01T06:26:32;96650.13;;;16.47
65180;BMP280;51849;47.476;8.084;2022-09-01T06:29:09;96656.72;;;16.53
65180;BMP280;51849;47.476;8.084;2022-09-01T06:31:40;96641.72;;;16.48
65180;BMP280;51849;47.476;8.084;2022-09-01T06:34:10;96653.91;;;16.51
65180;BMP280;51849;47.476;8.084;2022-09-01T06:36:42;96659.47;;;16.61
65180;BMP280;51849;47.476;8.084;2022-09-01T06:39:09;96654.63;;;16.65
65180;BMP280;51849;47.476;8.084;2022-09-01T06:41:48;96654.00;;;16.59
65180;BMP280;51849;47.476;8.084;2022-09-01T06:44:18;96654.09;;;16.53
65180;BMP280;51849;47.476;8.084;2022-09-01T06:46:50;96659.19;;;16.65
65180;BMP280;51849;47.476;8.084;2022-09-01T06:49:16;96661.41;;;16.74
65180;BMP280;51849;47.476;8.084;2022-09-01T06:51:46;96660.16;;;16.88
65180;BMP280;51849;47.476;8.084;2022-09-01T06:54:14;96658.66;;;16.92
65180;BMP280;51849;47.476;8.084;2022-09-01T06:56:40;96665.47;;;17.01
65180;BMP280;51849;47.476;8.084;2022-09-01T06:59:08;96657.34;;;16.99
65180;BMP280;51849;47.476;8.084;2022-09-01T07:01:35;96667.28;;;16.93
65180;BMP280;51849;47.476;8.084;2022-09-01T07:04:02;96661.59;;;16.89
65180;BMP280;51849;47.476;8.084;2022-09-01T07:06:28;96662.31;;;17.02
65180;BMP280;51849;47.476;8.084;2022-09-01T07:08:57;96657.56;;;17.01
65180;BMP280;51849;47.476;8.084;2022-09-01T07:11:28;96663.44;;;17.07
65180;BMP280;51849;47.476;8.084;2022-09-01T07:13:59;96669.28;;;17.13
65180;BMP280;51849;47.476;8.084;2022-09-01T07:16:35;96669.28;;;17.13
65180;BMP280;51849;47.476;8.084;2022-09-01T07:19:05;96665.13;;;17.17
65180;BMP280;51849;47.476;8.084;2022-09-01T07:21:40;96673.44;;;17.08
65180;BMP280;51849;47.476;8.084;2022-09-01T07:24:07;96664.44;;;17.17
65180;BMP280;51849;47.476;8.084;2022-09-01T07:26:36;96673.84;;;17.25
65180;BMP280;51849;47.476;8.084;2022-09-01T07:29:04;96670.56;;;17.32
65180;BMP280;51849;47.476;8.084;2022-09-01T07:31:33;96674.53;;;17.39
65180;BMP280;51849;47.476;8.084;2022-09-01T07:34:05;96673.03;;;17.30
65180;BMP280;51849;47.476;8.084;2022-09-01T07:36:31;96681.25;;;17.40
65180;BMP280;51849;47.476;8.084;2022-09-01T07:38:58;96681.72;;;17.51
65180;BMP280;51849;47.476;8.084;2022-09-01T07:41:27;96683.06;;;17.45
65180;BMP280;51849;47.476;8.084;2022-09-01T07:43:56;96694.00;;;17.49
65180;BMP280;51849;47.476;8.084;2022-09-01T07:46:23;96678.56;;;17.53
65180;BMP280;51849;47.476;8.084;2022-09-01T07:48:52;96681.84;;;17.46
65180;BMP280;51849;47.476;8.084;2022-09-01T07:51:24;96682.63;;;17.54
65180;BMP280;51849;47.476;8.084;2022-09-01T07:53:53;96677.22;;;17.59
65180;BMP280;51849;47.476;8.084;2022-09-01T07:56:22;96677.38;;;17.74
65180;BMP280;51849;47.476;8.084;2022-09-01T07:58:52;96690.44;;;17.80
65180;BMP280;51849;47.476;8.084;2022-09-01T08:01:22;96682.28;;;17.91
65180;BMP280;51849;47.476;8.084;2022-09-01T08:03:51;96675.97;;;17.94
65180;BMP280;51849;47.476;8.084;2022-09-01T08:06:19;96682.13;;;17.89
65180;BMP280;51849;47.476;8.084;2022-09-01T08:08:49;96679.31;;;17.94
65180;BMP280;51849;47.476;8.084;2022-09-01T08:11:21;96684.69;;;18.02
65180;BMP280;51849;47.476;8.084;2022-09-01T08:13:50;96674.78;;;18.15
65180;BMP280;51849;47.476;8.084;2022-09-01T08:16:20;96673.84;;;18.13
65180;BMP280;51849;47.476;8.084;2022-09-01T08:18:49;96678.81;;;18.16
65180;BMP280;51849;47.476;8.084;2022-09-01T08:21:19;96680.47;;;18.27
65180;BMP280;51849;47.476;8.084;2022-09-01T08:23:51;96687.97;;;18.15
65180;BMP280;51849;47.476;8.084;2022-09-01T08:26:21;96680.06;;;18.15
65180;BMP280;51849;47.476;8.084;2022-09-01T08:28:47;96684.09;;;18.37
65180;BMP280;51849;47.476;8.084;2022-09-01T08:31:16;96681.56;;;18.52
65180;BMP280;51849;47.476;8.084;2022-09-01T08:33:44;96686.88;;;18.60
65180;BMP280;51849;47.476;8.084;2022-09-01T08:36:14;96688.75;;;18.52
65180;BMP280;51849;47.476;8.084;2022-09-01T08:38:41;96687.91;;;18.49
65180;BMP280;51849;47.476;8.084;2022-09-01T08:44:08;96684.19;;;18.80
65180;BMP280;51849;47.476;8.084;2022-09-01T08:46:38;96681.78;;;18.90
65180;BMP280;51849;47.476;8.084;2022-09-01T08:49:14;96689.91;;;18.99
65180;BMP280;51849;47.476;8.084;2022-09-01T08:54:25;96676.94;;;19.09
65180;BMP280;51849;47.476;8.084;2022-09-01T08:57:04;96683.22;;;18.98
65180;BMP280;51849;47.476;8.084;2022-09-01T08:59:31;96671.84;;;18.75
65180;BMP280;51849;47.476;8.084;2022-09-01T09:02:38;96675.81;;;18.97
65180;BMP280;51849;47.476;8.084;2022-09-01T09:16:08;96680.88;;;19.30
65180;BMP280;51849;47.476;8.084;2022-09-01T09:21:17;96686.59;;;19.49
65180;BMP280;51849;47.476;8.084;2022-09-01T09:23:50;96691.03;;;19.69
65180;BMP280;51849;47.476;8.084;2022-09-01T09:26:19;96687.00;;;19.83
65180;BMP280;51849;47.476;8.084;2022-09-01T09:28:46;96689.34;;;19.94
65180;BMP280;51849;47.476;8.084;2022-09-01T09:31:31;96683.50;;;19.96
65180;BMP280;51849;47.476;8.084;2022-09-01T09:34:03;96678.56;;;20.15
65180;BMP280;51849;47.476;8.084;2022-09-01T09:36:46;96676.06;;;20.24
65180;BMP280;51849;47.476;8.084;2022-09-01T09:39:17;96679.22;;;20.60
65180;BMP280;51849;47.476;8.084;2022-09-01T09:42:01;96668.44;;;20.58
65180;BMP280;51849;47.476;8.084;2022-09-01T09:44:42;96668.28;;;20.56
65180;BMP280;51849;47.476;8.084;2022-09-01T09:47:37;96667.22;;;20.44
65180;BMP280;51849;47.476;8.084;2022-09-01T09:52:45;96657.88;;;20.36
65180;BMP280;51849;47.476;8.084;2022-09-01T09:55:29;96661.53;;;20.55
65180;BMP280;51849;47.476;8.084;2022-09-01T09:57:58;96655.22;;;20.98
65180;BMP280;51849;47.476;8.084;2022-09-01T10:00:28;96656.50;;;20.90
65180;BMP280;51849;47.476;8.084;2022-09-01T10:03:12;96648.78;;;21.16
65180;BMP280;51849;47.476;8.084;2022-09-01T10:05:42;96658.84;;;21.50
65180;BMP280;51849;47.476;8.084;2022-09-01T10:08:36;96647.03;;;21.43
65180;BMP280;51849;47.476;8.084;2022-09-01T10:11:05;96649.88;;;21.38
65180;BMP280;51849;47.476;8.084;2022-09-01T10:13:31;96649.59;;;21.26
65180;BMP280;51849;47.476;8.084;2022-09-01T10:16:07;96656.69;;;21.24
65180;BMP280;51849;47.476;8.084;2022-09-01T10:18:37;96651.88;;;20.98
65180;BMP280;51849;47.476;8.084;2022-09-01T10:21:14;96642.03;;;20.76
65180;BMP280;51849;47.476;8.084;2022-09-01T10:23:41;96651.19;;;20.82
65180;BMP280;51849;47.476;8.084;2022-09-01T10:28:51;96643.50;;;20.69
65180;BMP280;51849;47.476;8.084;2022-09-01T10:31:19;96647.22;;;20.58
65180;BMP280;51849;47.476;8.084;2022-09-01T10:33:47;96649.53;;;20.54
65180;BMP280;51849;47.476;8.084;2022-09-01T10:36:18;96645.84;;;20.42
65180;BMP280;51849;47.476;8.084;2022-09-01T10:38:45;96641.59;;;20.54
65180;BMP280;51849;47.476;8.084;2022-09-01T10:44:26;96644.84;;;20.77
65180;BMP280;51849;47.476;8.084;2022-09-01T10:46:56;96643.41;;;20.84
65180;BMP280;51849;47.476;8.084;2022-09-01T10:51:56;96637.41;;;21.48
65180;BMP280;51849;47.476;8.084;2022-09-01T10:54:49;96634.41;;;21.76
65180;BMP280;51849;47.476;8.084;2022-09-01T10:57:33;96640.38;;;22.01
65180;BMP280;51849;47.476;8.084;2022-09-01T11:18:52;96620.06;;;22.90
65180;BMP280;51849;47.476;8.084;2022-09-01T11:21:25;96616.13;;;22.82
65180;BMP280;51849;47.476;8.084;2022-09-01T11:26:56;96628.78;;;22.74
65180;BMP280;51849;47.476;8.084;2022-09-01T11:32:19;96627.69;;;22.77
65180;BMP280;51849;47.476;8.084;2022-09-01T11:34:48;96630.75;;;22.73
65180;BMP280;51849;47.476;8.084;2022-09-01T11:37:16;96623.59;;;22.93
65180;BMP280;51849;47.476;8.084;2022-09-01T11:39:51;96619.22;;;23.14
65180;BMP280;51849;47.476;8.084;2022-09-01T11:42:30;96608.66;;;23.07
65180;BMP280;51849;47.476;8.084;2022-09-01T11:45:24;96622.78;;;23.26
65180;BMP280;51849;47.476;8.084;2022-09-01T11:48:09;96608.69;;;23.43
65180;BMP280;51849;47.476;8.084;2022-09-01T11:50:39;96607.56;;;23.46
65180;BMP280;51849;47.476;8.084;2022-09-01T11:53:14;96613.06;;;23.12
65180;BMP280;51849;47.476;8.084;2022-09-01T11:55:50;96606.84;;;23.00
65180;BMP280;51849;47.476;8.084;2022-09-01T12:00:57;96611.94;;;22.62
65180;BMP280;51849;47.476;8.084;2022-09-01T12:03:47;96615.84;;;22.44
65180;BMP280;51849;47.476;8.084;2022-09-01T12:06:24;96613.75;;;22.42
65180;BMP280;51849;47.476;8.084;2022-09-01T12:08:59;96609.22;;;22.52
65180;BMP280;51849;47.476;8.084;2022-09-01T12:11:34;96609.22;;;22.52
65180;BMP280;51849;47.476;8.084;2022-09-01T12:14:07;96609.94;;;22.36
65180;BMP280;51849;47.476;8.084;2022-09-01T12:16:38;96614.28;;;22.41
65180;BMP280;51849;47.476;8.084;2022-09-01T12:19:06;96609.56;;;22.22
65180;BMP280;51849;47.476;8.084;2022-09-01T12:24:21;96611.28;;;22.54
65180;BMP280;51849;47.476;8.084;2022-09-01T12:26:53;96616.47;;;22.95
65180;BMP280;51849;47.476;8.084;2022-09-01T12:29:22;96616.81;;;23.09
65180;BMP280;51849;47.476;8.084;2022-09-01T12:31:51;96612.84;;;23.00
65180;BMP280;51849;47.476;8.084;2022-09-01T12:39:46;96607.94;;;22.97
65180;BMP280;51849;47.476;8.084;2022-09-01T12:44:56;96601.00;;;23.11
65180;BMP280;51849;47.476;8.084;2022-09-01T12:50:03;96600.09;;;22.99
65180;BMP280;51849;47.476;8.084;2022-09-01T12:52:31;96602.75;;;22.99
65180;BMP280;51849;47.476;8.084;2022-09-01T12:57:26;96601.81;;;23.04
65180;BMP280;51849;47.476;8.084;2022-09-01T13:00:17;96602.34;;;23.02
65180;BMP280;51849;47.476;8.084;2022-09-01T13:02:51;96605.63;;;22.84
65180;BMP280;51849;47.476;8.084;2022-09-01T13:05:33;96606.28;;;22.75
65180;BMP280;51849;47.476;8.084;2022-09-01T13:08:15;96589.34;;;22.80
65180;BMP280;51849;47.476;8.084;2022-09-01T13:10:44;96597.63;;;22.84
65180;BMP280;51849;47.476;8.084;2022-09-01T13:13:12;96599.06;;;22.68
65180;BMP280;51849;47.476;8.084;2022-09-01T13:15:47;96606.69;;;22.71
65180;BMP280;51849;47.476;8.084;2022-09-01T13:18:26;96603.13;;;22.86
65180;BMP280;51849;47.476;8.084;2022-09-01T13:20:53;96600.16;;;23.18
65180;BMP280;51849;47.476;8.084;2022-09-01T13:23:20;96596.03;;;23.34
65180;BMP280;51849;47.476;8.084;2022-09-01T13:25:51;96598.75;;;23.43
65180;BMP280;51849;47.476;8.084;2022-09-01T13:28:21;96595.03;;;23.29
65180;BMP280;51849;47.476;8.084;2022-09-01T13:30:53;96588.59;;;22.96
65180;BMP280;51849;47.476;8.084;2022-09-01T13:33:19;96585.84;;;23.04
65180;BMP280;51849;47.476;8.084;2022-09-01T13:35:49;96590.44;;;23.30
65180;BMP280;51849;47.476;8.084;2022-09-01T13:38:18;96590.63;;;23.51
65180;BMP280;51849;47.476;8.084;2022-09-01T13:40:46;96584.38;;;23.75
65180;BMP280;51849;47.476;8.084;2022-09-01T13:43:17;96573.00;;;23.94
65180;BMP280;51849;47.476;8.084;2022-09-01T13:45:47;96570.22;;;23.73
65180;BMP280;51849;47.476;8.084;2022-09-01T13:48:18;96575.69;;;23.29
65180;BMP280;51849;47.476;8.084;2022-09-01T13:50:49;96575.41;;;23.25
65180;BMP280;51849;47.476;8.084;2022-09-01T13:53:15;96574.56;;;23.22
65180;BMP280;51849;47.476;8.084;2022-09-01T13:55:42;96575.06;;;23.47
65180;BMP280;51849;47.476;8.084;2022-09-01T13:58:11;96558.84;;;23.82
65180;BMP280;51849;47.476;8.084;2022-09-01T14:00:44;96556.19;;;24.01
65180;BMP280;51849;47.476;8.084;2022-09-01T14:03:20;96555.63;;;24.12
65180;BMP280;51849;47.476;8.084;2022-09-01T14:05:47;96557.19;;;24.05
65180;BMP280;51849;47.476;8.084;2022-09-01T14:08:15;96549.88;;;23.96
65180;BMP280;51849;47.476;8.084;2022-09-01T14:10:45;96551.69;;;23.94
65180;BMP280;51849;47.476;8.084;2022-09-01T14:13:14;96553.66;;;24.03
65180;BMP280;51849;47.476;8.084;2022-09-01T14:15:40;96547.88;;;24.25
65180;BMP280;51849;47.476;8.084;2022-09-01T14:18:06;96557.44;;;24.28
65180;BMP280;51849;47.476;8.084;2022-09-01T14:20:35;96561.66;;;24.12
65180;BMP280;51849;47.476;8.084;2022-09-01T14:23:06;96559.69;;;24.03
65180;BMP280;51849;47.476;8.084;2022-09-01T14:25:32;96555.19;;;24.06
65180;BMP280;51849;47.476;8.084;2022-09-01T14:28:01;96557.88;;;24.06
65180;BMP280;51849;47.476;8.084;2022-09-01T14:30:29;96553.25;;;23.97
65180;BMP280;51849;47.476;8.084;2022-09-01T14:32:55;96551.56;;;24.01
65180;BMP280;51849;47.476;8.084;2022-09-01T14:35:26;96552.66;;;23.98
65180;BMP280;51849;47.476;8.084;2022-09-01T14:37:53;96535.28;;;23.97
65180;BMP280;51849;47.476;8.084;2022-09-01T14:40:20;96545.81;;;24.05
65180;BMP280;51849;47.476;8.084;2022-09-01T14:42:49;96542.72;;;24.08
65180;BMP280;51849;47.476;8.084;2022-09-01T14:45:22;96547.47;;;24.29
65180;BMP280;51849;47.476;8.084;2022-09-01T14:47:50;96544.78;;;24.29
65180;BMP280;51849;47.476;8.084;2022-09-01T14:50:17;96544.97;;;24.12
65180;BMP280;51849;47.476;8.084;2022-09-01T14:52:47;96542.44;;;23.75
65180;BMP280;51849;47.476;8.084;2022-09-01T14:55:13;96544.13;;;23.61
65180;BMP280;51849;47.476;8.084;2022-09-01T14:57:41;96543.69;;;23.65
65180;BMP280;51849;47.476;8.084;2022-09-01T15:00:08;96541.44;;;23.71
65180;BMP280;51849;47.476;8.084;2022-09-01T15:02:35;96538.91;;;23.54
65180;BMP280;51849;47.476;8.084;2022-09-01T15:05:02;96539.97;;;23.32
65180;BMP280;51849;47.476;8.084;2022-09-01T15:07:30;96539.63;;;23.54
65180;BMP280;51849;47.476;8.084;2022-09-01T15:09:56;96534.59;;;23.87
65180;BMP280;51849;47.476;8.084;2022-09-01T15:12:25;96541.59;;;23.92
65180;BMP280;51849;47.476;8.084;2022-09-01T15:15:00;96542.72;;;23.80
65180;BMP280;51849;47.476;8.084;2022-09-01T15:17:27;96547.06;;;23.75
65180;BMP280;51849;47.476;8.084;2022-09-01T15:19:53;96536.41;;;23.65
65180;BMP280;51849;47.476;8.084;2022-09-01T15:22:19;96538.19;;;23.53
65180;BMP280;51849;47.476;8.084;2022-09-01T15:24:49;96533.28;;;23.50
65180;BMP280;51849;47.476;8.084;2022-09-01T15:27:15;96536.13;;;23.61
65180;BMP280;51849;47.476;8.084;2022-09-01T15:29:41;96533.47;;;23.61
65180;BMP280;51849;47.476;8.084;2022-09-01T15:32:12;96536.84;;;23.62
65180;BMP280;51849;47.476;8.084;2022-09-01T15:34:38;96538.47;;;23.67
65180;BMP280;51849;47.476;8.084;2022-09-01T15:37:06;96534.03;;;23.79
65180;BMP280;51849;47.476;8.084;2022-09-01T15:39:33;96525.88;;;23.87
65180;BMP280;51849;47.476;8.084;2022-09-01T15:41:59;96527.16;;;23.86
65180;BMP280;51849;47.476;8.084;2022-09-01T15:44:28;96527.16;;;23.76